KOUN/OUN METAR and TAF weather

Enter ICAO airport designator
Station Type Date Time Source
KOUN METAR 2022/09/28 17:45 UTC NOAA

KOUN 281745Z 20005KT 10SM CLR 29/07 A3019


Station Type Date Time Source
KOUN Decoded METAR 2022/09/28 17:45 UTC NOAA

Norman / Max Westheimer, OK, United States (KOUN) 35-13N 097-27W 357M
Sep 28, 2022 - 01:45 PM EDT / 2022.09.28 1745 UTC
Wind: from the SSW (200 degrees) at 6 MPH (5 KT):0
Visibility: 10 mile(s):0
Sky conditions: clear
Temperature: 84 F (29 C)
Dew Point: 44 F (7 C)
Relative Humidity: 24%
Pressure (altimeter): 30.19 in. Hg (1022 hPa)
ob: KOUN 281745Z 20005KT 10SM CLR 29/07 A3019
cycle: 18

Station Type Date Time Source
KOUN TAF 2022/09/28 18:22 UTC NOAA

TAF KOUN 281720Z 2818/2918 21010G16KT P6SM SKC
FM290300 11008KT P6SM SKC
FM291200 15012KT P6SM SKC

Example: see airport list